sensor_id;sensor_type;location;lat;lon;timestamp;P1;durP1;ratioP1;P2;durP2;ratioP2
64353;SDS011;50681;53.334;-6.536;2023-02-15T00:00:16;13.43;;;5.97;;
64353;SDS011;50681;53.334;-6.536;2023-02-15T00:02:41;17.75;;;6.80;;
64353;SDS011;50681;53.334;-6.536;2023-02-15T00:05:07;14.80;;;5.93;;
64353;SDS011;50681;53.334;-6.536;2023-02-15T00:07:33;11.73;;;5.22;;
64353;SDS011;50681;53.334;-6.536;2023-02-15T00:09:59;12.80;;;5.82;;
64353;SDS011;50681;53.334;-6.536;2023-02-15T00:12:25;14.23;;;6.00;;
64353;SDS011;50681;53.334;-6.536;2023-02-15T00:14:50;16.97;;;5.40;;
64353;SDS011;50681;53.334;-6.536;2023-02-15T00:17:16;12.70;;;5.77;;
64353;SDS011;50681;53.334;-6.536;2023-02-15T00:19:41;23.80;;;7.17;;
64353;SDS011;50681;53.334;-6.536;2023-02-15T00:22:07;15.97;;;5.63;;
64353;SDS011;50681;53.334;-6.536;2023-02-15T00:24:32;15.97;;;5.53;;
64353;SDS011;50681;53.334;-6.536;2023-02-15T00:26:58;15.67;;;5.77;;
64353;SDS011;50681;53.334;-6.536;2023-02-15T00:29:23;14.33;;;5.37;;
64353;SDS011;50681;53.334;-6.536;2023-02-15T00:31:49;16.15;;;6.32;;
64353;SDS011;50681;53.334;-6.536;2023-02-15T00:34:17;15.00;;;6.13;;
64353;SDS011;50681;53.334;-6.536;2023-02-15T00:36:45;21.20;;;6.57;;
64353;SDS011;50681;53.334;-6.536;2023-02-15T00:39:11;18.33;;;5.82;;
64353;SDS011;50681;53.334;-6.536;2023-02-15T00:41:37;14.45;;;6.10;;
64353;SDS011;50681;53.334;-6.536;2023-02-15T00:44:03;11.30;;;5.40;;
64353;SDS011;50681;53.334;-6.536;2023-02-15T00:46:29;17.45;;;6.18;;
64353;SDS011;50681;53.334;-6.536;2023-02-15T00:48:55;18.80;;;6.30;;
64353;SDS011;50681;53.334;-6.536;2023-02-15T00:51:20;14.07;;;5.90;;
64353;SDS011;50681;53.334;-6.536;2023-02-15T00:53:46;20.33;;;6.60;;
64353;SDS011;50681;53.334;-6.536;2023-02-15T00:56:12;12.13;;;6.43;;
64353;SDS011;50681;53.334;-6.536;2023-02-15T00:58:37;15.83;;;5.77;;
64353;SDS011;50681;53.334;-6.536;2023-02-15T01:01:07;19.37;;;7.03;;
64353;SDS011;50681;53.334;-6.536;2023-02-15T01:03:34;18.33;;;6.40;;
64353;SDS011;50681;53.334;-6.536;2023-02-15T01:06:00;28.58;;;6.82;;
64353;SDS011;50681;53.334;-6.536;2023-02-15T01:08:27;18.00;;;6.43;;
64353;SDS011;50681;53.334;-6.536;2023-02-15T01:10:52;19.13;;;6.60;;
64353;SDS011;50681;53.334;-6.536;2023-02-15T01:13:18;21.83;;;7.50;;
64353;SDS011;50681;53.334;-6.536;2023-02-15T01:15:44;19.15;;;7.20;;
64353;SDS011;50681;53.334;-6.536;2023-02-15T01:18:10;19.33;;;7.27;;
64353;SDS011;50681;53.334;-6.536;2023-02-15T01:23:04;20.73;;;6.95;;
64353;SDS011;50681;53.334;-6.536;2023-02-15T01:27:55;25.85;;;6.90;;
64353;SDS011;50681;53.334;-6.536;2023-02-15T01:30:21;17.50;;;6.88;;
64353;SDS011;50681;53.334;-6.536;2023-02-15T01:32:46;21.90;;;8.37;;
64353;SDS011;50681;53.334;-6.536;2023-02-15T01:35:12;25.20;;;8.13;;
64353;SDS011;50681;53.334;-6.536;2023-02-15T01:37:37;24.10;;;7.87;;
64353;SDS011;50681;53.334;-6.536;2023-02-15T01:40:04;21.17;;;8.82;;
64353;SDS011;50681;53.334;-6.536;2023-02-15T01:42:32;21.25;;;7.70;;
64353;SDS011;50681;53.334;-6.536;2023-02-15T01:44:58;22.60;;;8.87;;
64353;SDS011;50681;53.334;-6.536;2023-02-15T01:47:47;18.55;;;8.50;;
64353;SDS011;50681;53.334;-6.536;2023-02-15T01:53:09;22.08;;;9.07;;
64353;SDS011;50681;53.334;-6.536;2023-02-15T01:55:47;23.30;;;9.38;;
64353;SDS011;50681;53.334;-6.536;2023-02-15T01:58:26;23.30;;;8.75;;
64353;SDS011;50681;53.334;-6.536;2023-02-15T02:00:54;30.20;;;9.38;;
64353;SDS011;50681;53.334;-6.536;2023-02-15T02:06:33;20.30;;;8.80;;
64353;SDS011;50681;53.334;-6.536;2023-02-15T02:09:01;32.80;;;12.00;;
64353;SDS011;50681;53.334;-6.536;2023-02-15T02:11:27;19.40;;;9.05;;
64353;SDS011;50681;53.334;-6.536;2023-02-15T02:13:53;25.35;;;9.70;;
64353;SDS011;50681;53.334;-6.536;2023-02-15T02:16:21;31.10;;;11.57;;
64353;SDS011;50681;53.334;-6.536;2023-02-15T02:21:29;25.50;;;10.13;;
64353;SDS011;50681;53.334;-6.536;2023-02-15T02:27:19;25.33;;;10.77;;
64353;SDS011;50681;53.334;-6.536;2023-02-15T02:40:19;37.63;;;10.90;;
64353;SDS011;50681;53.334;-6.536;2023-02-15T02:42:55;34.40;;;11.18;;
64353;SDS011;50681;53.334;-6.536;2023-02-15T02:45:31;35.30;;;11.23;;
64353;SDS011;50681;53.334;-6.536;2023-02-15T02:48:08;26.52;;;10.50;;
64353;SDS011;50681;53.334;-6.536;2023-02-15T02:50:39;27.80;;;11.32;;
64353;SDS011;50681;53.334;-6.536;2023-02-15T02:53:05;34.08;;;12.88;;
64353;SDS011;50681;53.334;-6.536;2023-02-15T02:55:32;25.13;;;11.47;;
64353;SDS011;50681;53.334;-6.536;2023-02-15T03:00:42;35.00;;;11.85;;
64353;SDS011;50681;53.334;-6.536;2023-02-15T03:03:14;35.55;;;13.20;;
64353;SDS011;50681;53.334;-6.536;2023-02-15T03:05:46;41.60;;;12.82;;
64353;SDS011;50681;53.334;-6.536;2023-02-15T03:08:16;36.10;;;12.15;;
64353;SDS011;50681;53.334;-6.536;2023-02-15T03:10:47;30.27;;;11.98;;
64353;SDS011;50681;53.334;-6.536;2023-02-15T03:13:16;27.17;;;10.82;;
64353;SDS011;50681;53.334;-6.536;2023-02-15T03:15:42;38.65;;;13.25;;
64353;SDS011;50681;53.334;-6.536;2023-02-15T03:18:30;36.53;;;14.30;;
64353;SDS011;50681;53.334;-6.536;2023-02-15T03:21:01;40.25;;;14.05;;
64353;SDS011;50681;53.334;-6.536;2023-02-15T03:23:29;31.48;;;12.50;;
64353;SDS011;50681;53.334;-6.536;2023-02-15T03:26:00;36.20;;;12.30;;
64353;SDS011;50681;53.334;-6.536;2023-02-15T03:28:46;27.05;;;12.63;;
64353;SDS011;50681;53.334;-6.536;2023-02-15T03:31:14;29.67;;;12.32;;
64353;SDS011;50681;53.334;-6.536;2023-02-15T03:33:44;36.15;;;12.15;;
64353;SDS011;50681;53.334;-6.536;2023-02-15T03:36:18;29.75;;;11.57;;
64353;SDS011;50681;53.334;-6.536;2023-02-15T03:41:40;26.98;;;10.93;;
64353;SDS011;50681;53.334;-6.536;2023-02-15T03:44:25;40.13;;;11.10;;
64353;SDS011;50681;53.334;-6.536;2023-02-15T03:47:04;33.30;;;10.88;;
64353;SDS011;50681;53.334;-6.536;2023-02-15T03:52:20;37.75;;;11.95;;
64353;SDS011;50681;53.334;-6.536;2023-02-15T03:55:03;29.23;;;11.55;;
64353;SDS011;50681;53.334;-6.536;2023-02-15T03:57:28;36.58;;;12.15;;
64353;SDS011;50681;53.334;-6.536;2023-02-15T04:00:21;31.95;;;11.95;;
64353;SDS011;50681;53.334;-6.536;2023-02-15T04:05:33;29.70;;;12.57;;
64353;SDS011;50681;53.334;-6.536;2023-02-15T04:07:58;34.00;;;12.77;;
64353;SDS011;50681;53.334;-6.536;2023-02-15T04:10:24;26.67;;;11.43;;
64353;SDS011;50681;53.334;-6.536;2023-02-15T04:13:07;43.03;;;11.63;;
64353;SDS011;50681;53.334;-6.536;2023-02-15T04:15:33;35.60;;;11.20;;
64353;SDS011;50681;53.334;-6.536;2023-02-15T04:18:17;29.73;;;11.30;;
64353;SDS011;50681;53.334;-6.536;2023-02-15T04:20:43;35.30;;;11.00;;
64353;SDS011;50681;53.334;-6.536;2023-02-15T04:23:28;35.00;;;11.30;;
64353;SDS011;50681;53.334;-6.536;2023-02-15T04:26:11;25.42;;;10.32;;
64353;SDS011;50681;53.334;-6.536;2023-02-15T04:28:37;37.33;;;11.23;;
64353;SDS011;50681;53.334;-6.536;2023-02-15T04:31:02;31.03;;;10.53;;
64353;SDS011;50681;53.334;-6.536;2023-02-15T04:33:28;37.43;;;11.93;;
64353;SDS011;50681;53.334;-6.536;2023-02-15T04:35:53;38.50;;;12.30;;
64353;SDS011;50681;53.334;-6.536;2023-02-15T04:38:19;44.47;;;11.83;;
64353;SDS011;50681;53.334;-6.536;2023-02-15T04:40:44;41.50;;;11.07;;
64353;SDS011;50681;53.334;-6.536;2023-02-15T04:43:14;35.53;;;10.63;;
64353;SDS011;50681;53.334;-6.536;2023-02-15T04:45:39;41.17;;;11.07;;
64353;SDS011;50681;53.334;-6.536;2023-02-15T04:48:05;39.83;;;11.03;;
64353;SDS011;50681;53.334;-6.536;2023-02-15T04:50:30;34.40;;;9.90;;
64353;SDS011;50681;53.334;-6.536;2023-02-15T04:52:56;22.80;;;7.80;;
64353;SDS011;50681;53.334;-6.536;2023-02-15T04:55:21;12.87;;;3.60;;
64353;SDS011;50681;53.334;-6.536;2023-02-15T04:57:47;18.13;;;4.07;;
64353;SDS011;50681;53.334;-6.536;2023-02-15T05:00:12;3.47;;;1.20;;
64353;SDS011;50681;53.334;-6.536;2023-02-15T05:02:38;1.33;;;0.57;;
64353;SDS011;50681;53.334;-6.536;2023-02-15T05:05:03;2.03;;;0.70;;
64353;SDS011;50681;53.334;-6.536;2023-02-15T05:07:29;1.43;;;0.70;;
64353;SDS011;50681;53.334;-6.536;2023-02-15T05:09:54;2.70;;;0.70;;
64353;SDS011;50681;53.334;-6.536;2023-02-15T05:12:20;1.43;;;0.63;;
64353;SDS011;50681;53.334;-6.536;2023-02-15T05:14:45;1.03;;;0.43;;
64353;SDS011;50681;53.334;-6.536;2023-02-15T05:17:11;1.50;;;0.43;;
64353;SDS011;50681;53.334;-6.536;2023-02-15T05:19:36;1.23;;;0.60;;
64353;SDS011;50681;53.334;-6.536;2023-02-15T05:22:01;0.73;;;0.20;;
64353;SDS011;50681;53.334;-6.536;2023-02-15T05:24:27;1.33;;;0.50;;
64353;SDS011;50681;53.334;-6.536;2023-02-15T05:27:11;4.05;;;0.73;;
64353;SDS011;50681;53.334;-6.536;2023-02-15T05:29:55;2.05;;;0.60;;
64353;SDS011;50681;53.334;-6.536;2023-02-15T05:32:20;2.17;;;0.50;;
64353;SDS011;50681;53.334;-6.536;2023-02-15T05:34:46;1.10;;;0.40;;
64353;SDS011;50681;53.334;-6.536;2023-02-15T05:37:11;2.93;;;0.80;;
64353;SDS011;50681;53.334;-6.536;2023-02-15T05:39:37;3.13;;;0.53;;
64353;SDS011;50681;53.334;-6.536;2023-02-15T05:42:02;0.63;;;0.30;;
64353;SDS011;50681;53.334;-6.536;2023-02-15T05:44:28;0.93;;;0.33;;
64353;SDS011;50681;53.334;-6.536;2023-02-15T05:46:53;1.47;;;0.60;;
64353;SDS011;50681;53.334;-6.536;2023-02-15T05:49:18;2.00;;;0.40;;
64353;SDS011;50681;53.334;-6.536;2023-02-15T05:51:44;1.73;;;0.50;;
64353;SDS011;50681;53.334;-6.536;2023-02-15T05:54:09;0.90;;;0.60;;
64353;SDS011;50681;53.334;-6.536;2023-02-15T05:56:35;1.93;;;0.70;;
64353;SDS011;50681;53.334;-6.536;2023-02-15T05:59:00;2.43;;;0.63;;
64353;SDS011;50681;53.334;-6.536;2023-02-15T06:01:26;1.70;;;0.47;;
64353;SDS011;50681;53.334;-6.536;2023-02-15T06:03:51;1.07;;;0.50;;
64353;SDS011;50681;53.334;-6.536;2023-02-15T06:06:17;2.60;;;0.75;;
64353;SDS011;50681;53.334;-6.536;2023-02-15T06:08:43;1.90;;;0.50;;
64353;SDS011;50681;53.334;-6.536;2023-02-15T06:11:08;1.13;;;0.50;;
64353;SDS011;50681;53.334;-6.536;2023-02-15T06:13:34;1.43;;;0.80;;
64353;SDS011;50681;53.334;-6.536;2023-02-15T06:16:00;4.45;;;0.93;;
64353;SDS011;50681;53.334;-6.536;2023-02-15T06:18:25;3.83;;;0.60;;
64353;SDS011;50681;53.334;-6.536;2023-02-15T06:20:51;1.23;;;0.50;;
64353;SDS011;50681;53.334;-6.536;2023-02-15T06:23:17;1.60;;;0.63;;
64353;SDS011;50681;53.334;-6.536;2023-02-15T06:25:44;1.80;;;0.80;;
64353;SDS011;50681;53.334;-6.536;2023-02-15T06:28:10;3.17;;;1.00;;
64353;SDS011;50681;53.334;-6.536;2023-02-15T06:30:35;3.03;;;0.90;;
64353;SDS011;50681;53.334;-6.536;2023-02-15T06:33:00;1.67;;;0.93;;
64353;SDS011;50681;53.334;-6.536;2023-02-15T06:35:26;1.37;;;0.70;;
64353;SDS011;50681;53.334;-6.536;2023-02-15T06:37:51;2.63;;;1.10;;
64353;SDS011;50681;53.334;-6.536;2023-02-15T06:40:17;1.30;;;0.73;;
64353;SDS011;50681;53.334;-6.536;2023-02-15T06:42:42;2.10;;;0.63;;
64353;SDS011;50681;53.334;-6.536;2023-02-15T06:45:08;2.25;;;0.90;;
64353;SDS011;50681;53.334;-6.536;2023-02-15T06:47:35;1.05;;;0.52;;
64353;SDS011;50681;53.334;-6.536;2023-02-15T06:50:00;4.10;;;0.83;;
64353;SDS011;50681;53.334;-6.536;2023-02-15T06:52:26;3.65;;;0.60;;
64353;SDS011;50681;53.334;-6.536;2023-02-15T06:57:18;1.52;;;0.52;;
64353;SDS011;50681;53.334;-6.536;2023-02-15T06:59:43;1.43;;;0.67;;
64353;SDS011;50681;53.334;-6.536;2023-02-15T07:02:11;3.37;;;1.20;;
64353;SDS011;50681;53.334;-6.536;2023-02-15T07:04:37;2.42;;;0.90;;
64353;SDS011;50681;53.334;-6.536;2023-02-15T07:07:02;9.37;;;0.90;;
64353;SDS011;50681;53.334;-6.536;2023-02-15T07:09:28;1.83;;;0.88;;
64353;SDS011;50681;53.334;-6.536;2023-02-15T07:11:54;4.57;;;1.13;;
64353;SDS011;50681;53.334;-6.536;2023-02-15T07:14:38;1.38;;;0.73;;
64353;SDS011;50681;53.334;-6.536;2023-02-15T07:17:03;1.43;;;0.83;;
64353;SDS011;50681;53.334;-6.536;2023-02-15T07:19:28;3.27;;;0.70;;
64353;SDS011;50681;53.334;-6.536;2023-02-15T07:21:54;8.87;;;1.00;;
64353;SDS011;50681;53.334;-6.536;2023-02-15T07:24:19;4.50;;;0.80;;
64353;SDS011;50681;53.334;-6.536;2023-02-15T07:26:45;3.90;;;0.87;;
64353;SDS011;50681;53.334;-6.536;2023-02-15T07:29:10;2.10;;;0.70;;
64353;SDS011;50681;53.334;-6.536;2023-02-15T07:31:35;1.87;;;0.43;;
64353;SDS011;50681;53.334;-6.536;2023-02-15T07:34:01;3.93;;;0.47;;
64353;SDS011;50681;53.334;-6.536;2023-02-15T07:36:26;2.67;;;0.80;;
64353;SDS011;50681;53.334;-6.536;2023-02-15T07:38:52;3.07;;;1.10;;
64353;SDS011;50681;53.334;-6.536;2023-02-15T07:41:17;3.77;;;1.00;;
64353;SDS011;50681;53.334;-6.536;2023-02-15T07:43:43;1.80;;;0.73;;
64353;SDS011;50681;53.334;-6.536;2023-02-15T07:46:12;1.70;;;0.70;;
64353;SDS011;50681;53.334;-6.536;2023-02-15T07:48:40;1.45;;;0.57;;
64353;SDS011;50681;53.334;-6.536;2023-02-15T07:51:07;3.25;;;1.13;;
64353;SDS011;50681;53.334;-6.536;2023-02-15T07:53:35;3.42;;;0.77;;
64353;SDS011;50681;53.334;-6.536;2023-02-15T07:56:04;4.95;;;1.02;;
64353;SDS011;50681;53.334;-6.536;2023-02-15T07:58:32;1.65;;;0.77;;
64353;SDS011;50681;53.334;-6.536;2023-02-15T08:01:16;1.50;;;0.50;;
64353;SDS011;50681;53.334;-6.536;2023-02-15T08:03:52;3.20;;;0.77;;
64353;SDS011;50681;53.334;-6.536;2023-02-15T08:06:19;2.47;;;0.80;;
64353;SDS011;50681;53.334;-6.536;2023-02-15T08:08:46;2.40;;;0.60;;
64353;SDS011;50681;53.334;-6.536;2023-02-15T08:14:02;3.38;;;0.68;;
64353;SDS011;50681;53.334;-6.536;2023-02-15T08:21:51;1.48;;;0.70;;
64353;SDS011;50681;53.334;-6.536;2023-02-15T08:24:26;2.10;;;0.73;;
64353;SDS011;50681;53.334;-6.536;2023-02-15T08:26:53;0.85;;;0.65;;
64353;SDS011;50681;53.334;-6.536;2023-02-15T08:29:19;2.95;;;0.93;;
64353;SDS011;50681;53.334;-6.536;2023-02-15T08:31:47;3.38;;;0.90;;
64353;SDS011;50681;53.334;-6.536;2023-02-15T08:36:42;2.40;;;0.70;;
64353;SDS011;50681;53.334;-6.536;2023-02-15T08:39:07;1.77;;;0.75;;
64353;SDS011;50681;53.334;-6.536;2023-02-15T08:41:34;3.33;;;0.83;;
64353;SDS011;50681;53.334;-6.536;2023-02-15T08:44:01;2.83;;;0.98;;
64353;SDS011;50681;53.334;-6.536;2023-02-15T08:46:32;4.55;;;0.77;;
64353;SDS011;50681;53.334;-6.536;2023-02-15T08:48:59;2.28;;;0.52;;
64353;SDS011;50681;53.334;-6.536;2023-02-15T08:51:26;3.70;;;0.80;;
64353;SDS011;50681;53.334;-6.536;2023-02-15T08:53:57;1.67;;;0.73;;
64353;SDS011;50681;53.334;-6.536;2023-02-15T08:56:25;1.27;;;0.60;;
64353;SDS011;50681;53.334;-6.536;2023-02-15T08:58:52;1.77;;;0.85;;
64353;SDS011;50681;53.334;-6.536;2023-02-15T09:01:19;0.90;;;0.55;;
64353;SDS011;50681;53.334;-6.536;2023-02-15T09:03:47;1.88;;;0.77;;
64353;SDS011;50681;53.334;-6.536;2023-02-15T09:06:15;2.40;;;0.68;;
64353;SDS011;50681;53.334;-6.536;2023-02-15T09:08:41;1.30;;;0.70;;
64353;SDS011;50681;53.334;-6.536;2023-02-15T09:11:14;4.63;;;1.10;;
64353;SDS011;50681;53.334;-6.536;2023-02-15T09:13:47;3.88;;;0.90;;
64353;SDS011;50681;53.334;-6.536;2023-02-15T09:21:11;2.10;;;0.90;;
64353;SDS011;50681;53.334;-6.536;2023-02-15T09:23:44;1.23;;;0.73;;
64353;SDS011;50681;53.334;-6.536;2023-02-15T09:26:12;2.55;;;0.63;;
64353;SDS011;50681;53.334;-6.536;2023-02-15T09:28:39;3.53;;;0.95;;
64353;SDS011;50681;53.334;-6.536;2023-02-15T09:33:38;3.72;;;2.20;;
64353;SDS011;50681;53.334;-6.536;2023-02-15T09:38:41;69.93;;;42.67;;
64353;SDS011;50681;53.334;-6.536;2023-02-15T09:49:57;4.13;;;1.60;;
64353;SDS011;50681;53.334;-6.536;2023-02-15T10:01:02;5.13;;;1.80;;
64353;SDS011;50681;53.334;-6.536;2023-02-15T10:26:21;6.38;;;2.97;;
64353;SDS011;50681;53.334;-6.536;2023-02-15T10:34:38;6.50;;;3.33;;
64353;SDS011;50681;53.334;-6.536;2023-02-15T10:37:14;10.27;;;6.75;;
64353;SDS011;50681;53.334;-6.536;2023-02-15T10:40:00;6.88;;;3.95;;
64353;SDS011;50681;53.334;-6.536;2023-02-15T10:45:31;3.30;;;1.20;;
64353;SDS011;50681;53.334;-6.536;2023-02-15T10:50:57;10.98;;;1.42;;
64353;SDS011;50681;53.334;-6.536;2023-02-15T10:56:25;5.20;;;3.08;;
64353;SDS011;50681;53.334;-6.536;2023-02-15T10:59:07;7.13;;;1.67;;
64353;SDS011;50681;53.334;-6.536;2023-02-15T11:04:37;8.30;;;1.50;;
64353;SDS011;50681;53.334;-6.536;2023-02-15T11:09:43;9.80;;;1.65;;
64353;SDS011;50681;53.334;-6.536;2023-02-15T11:12:16;8.07;;;1.90;;
64353;SDS011;50681;53.334;-6.536;2023-02-15T11:14:48;7.80;;;1.60;;
64353;SDS011;50681;53.334;-6.536;2023-02-15T11:17:24;3.83;;;1.00;;
64353;SDS011;50681;53.334;-6.536;2023-02-15T11:20:15;6.65;;;1.10;;
64353;SDS011;50681;53.334;-6.536;2023-02-15T11:22:47;10.65;;;1.40;;
64353;SDS011;50681;53.334;-6.536;2023-02-15T11:25:17;5.32;;;1.00;;
64353;SDS011;50681;53.334;-6.536;2023-02-15T11:27:48;13.30;;;1.50;;
64353;SDS011;50681;53.334;-6.536;2023-02-15T11:30:18;6.20;;;1.00;;
64353;SDS011;50681;53.334;-6.536;2023-02-15T11:32:46;2.85;;;1.02;;
64353;SDS011;50681;53.334;-6.536;2023-02-15T11:38:07;12.00;;;1.67;;
64353;SDS011;50681;53.334;-6.536;2023-02-15T11:43:19;5.28;;;1.23;;
64353;SDS011;50681;53.334;-6.536;2023-02-15T11:45:54;5.15;;;1.73;;
64353;SDS011;50681;53.334;-6.536;2023-02-15T11:48:19;9.35;;;1.40;;
64353;SDS011;50681;53.334;-6.536;2023-02-15T11:50:45;9.48;;;1.20;;
64353;SDS011;50681;53.334;-6.536;2023-02-15T11:53:20;9.73;;;1.73;;
64353;SDS011;50681;53.334;-6.536;2023-02-15T11:55:52;11.48;;;1.60;;
64353;SDS011;50681;53.334;-6.536;2023-02-15T12:03:57;6.97;;;1.55;;
64353;SDS011;50681;53.334;-6.536;2023-02-15T12:06:27;6.75;;;1.42;;
64353;SDS011;50681;53.334;-6.536;2023-02-15T12:09:04;13.95;;;1.65;;
64353;SDS011;50681;53.334;-6.536;2023-02-15T12:11:40;6.10;;;1.42;;
64353;SDS011;50681;53.334;-6.536;2023-02-15T12:14:07;11.65;;;1.80;;
64353;SDS011;50681;53.334;-6.536;2023-02-15T12:16:44;10.93;;;2.00;;
64353;SDS011;50681;53.334;-6.536;2023-02-15T12:19:24;9.88;;;2.72;;
64353;SDS011;50681;53.334;-6.536;2023-02-15T12:21:58;11.02;;;2.40;;
64353;SDS011;50681;53.334;-6.536;2023-02-15T12:24:34;8.43;;;1.30;;
64353;SDS011;50681;53.334;-6.536;2023-02-15T12:27:03;7.32;;;2.10;;
64353;SDS011;50681;53.334;-6.536;2023-02-15T12:29:48;17.85;;;6.93;;
64353;SDS011;50681;53.334;-6.536;2023-02-15T12:32:26;43.13;;;23.20;;
64353;SDS011;50681;53.334;-6.536;2023-02-15T12:35:08;9.48;;;3.05;;
64353;SDS011;50681;53.334;-6.536;2023-02-15T12:37:39;9.13;;;1.83;;
64353;SDS011;50681;53.334;-6.536;2023-02-15T12:40:25;14.43;;;2.65;;
64353;SDS011;50681;53.334;-6.536;2023-02-15T12:42:57;6.22;;;1.60;;
64353;SDS011;50681;53.334;-6.536;2023-02-15T12:45:33;7.03;;;2.00;;
64353;SDS011;50681;53.334;-6.536;2023-02-15T13:00:41;11.50;;;2.53;;
64353;SDS011;50681;53.334;-6.536;2023-02-15T13:03:14;14.13;;;2.20;;
64353;SDS011;50681;53.334;-6.536;2023-02-15T13:05:46;7.90;;;1.77;;
64353;SDS011;50681;53.334;-6.536;2023-02-15T13:13:18;8.70;;;1.83;;
64353;SDS011;50681;53.334;-6.536;2023-02-15T13:15:48;10.38;;;2.30;;
64353;SDS011;50681;53.334;-6.536;2023-02-15T13:18:20;11.85;;;2.13;;
64353;SDS011;50681;53.334;-6.536;2023-02-15T13:23:27;5.88;;;2.00;;
64353;SDS011;50681;53.334;-6.536;2023-02-15T13:25:58;14.82;;;3.60;;
64353;SDS011;50681;53.334;-6.536;2023-02-15T13:28:37;17.50;;;6.95;;
64353;SDS011;50681;53.334;-6.536;2023-02-15T13:31:11;23.80;;;8.98;;
64353;SDS011;50681;53.334;-6.536;2023-02-15T13:33:39;11.20;;;2.85;;
64353;SDS011;50681;53.334;-6.536;2023-02-15T13:36:24;16.13;;;5.28;;
64353;SDS011;50681;53.334;-6.536;2023-02-15T13:55:57;15.70;;;2.08;;
64353;SDS011;50681;53.334;-6.536;2023-02-15T13:59:14;7.53;;;1.23;;
64353;SDS011;50681;53.334;-6.536;2023-02-15T14:04:34;7.60;;;1.70;;
64353;SDS011;50681;53.334;-6.536;2023-02-15T14:07:52;14.50;;;2.17;;
64353;SDS011;50681;53.334;-6.536;2023-02-15T14:16:48;12.30;;;2.53;;
64353;SDS011;50681;53.334;-6.536;2023-02-15T14:19:35;12.63;;;2.67;;
64353;SDS011;50681;53.334;-6.536;2023-02-15T14:24:40;17.23;;;3.63;;
64353;SDS011;50681;53.334;-6.536;2023-02-15T14:30:26;10.50;;;2.55;;
64353;SDS011;50681;53.334;-6.536;2023-02-15T14:32:57;15.52;;;2.67;;
64353;SDS011;50681;53.334;-6.536;2023-02-15T14:35:29;7.82;;;1.08;;
64353;SDS011;50681;53.334;-6.536;2023-02-15T14:41:04;7.82;;;1.70;;
64353;SDS011;50681;53.334;-6.536;2023-02-15T14:46:46;10.15;;;1.55;;
64353;SDS011;50681;53.334;-6.536;2023-02-15T14:49:19;10.75;;;1.63;;
64353;SDS011;50681;53.334;-6.536;2023-02-15T14:52:07;9.90;;;1.65;;
64353;SDS011;50681;53.334;-6.536;2023-02-15T15:01:55;12.98;;;2.15;;
64353;SDS011;50681;53.334;-6.536;2023-02-15T15:06:58;16.27;;;4.65;;
64353;SDS011;50681;53.334;-6.536;2023-02-15T15:12:43;17.17;;;4.18;;
64353;SDS011;50681;53.334;-6.536;2023-02-15T15:15:11;10.88;;;4.45;;
64353;SDS011;50681;53.334;-6.536;2023-02-15T15:25:57;47.97;;;19.92;;
64353;SDS011;50681;53.334;-6.536;2023-02-15T15:50:18;20.92;;;9.48;;
64353;SDS011;50681;53.334;-6.536;2023-02-15T15:52:54;25.67;;;11.02;;
64353;SDS011;50681;53.334;-6.536;2023-02-15T15:55:24;35.75;;;19.65;;
64353;SDS011;50681;53.334;-6.536;2023-02-15T15:57:56;26.80;;;9.20;;
64353;SDS011;50681;53.334;-6.536;2023-02-15T16:00:30;51.03;;;21.23;;
64353;SDS011;50681;53.334;-6.536;2023-02-15T16:03:03;57.55;;;22.73;;
64353;SDS011;50681;53.334;-6.536;2023-02-15T16:05:37;36.95;;;10.80;;
64353;SDS011;50681;53.334;-6.536;2023-02-15T16:10:37;15.13;;;4.43;;
64353;SDS011;50681;53.334;-6.536;2023-02-15T16:13:04;91.82;;;29.58;;
64353;SDS011;50681;53.334;-6.536;2023-02-15T16:18:02;16.83;;;6.20;;
64353;SDS011;50681;53.334;-6.536;2023-02-15T16:28:33;23.88;;;6.78;;
64353;SDS011;50681;53.334;-6.536;2023-02-15T16:33:35;11.40;;;3.10;;
64353;SDS011;50681;53.334;-6.536;2023-02-15T16:36:02;18.45;;;2.65;;
64353;SDS011;50681;53.334;-6.536;2023-02-15T16:41:07;12.55;;;2.65;;
64353;SDS011;50681;53.334;-6.536;2023-02-15T16:43:35;36.95;;;11.23;;
64353;SDS011;50681;53.334;-6.536;2023-02-15T16:46:06;16.20;;;3.58;;
64353;SDS011;50681;53.334;-6.536;2023-02-15T16:48:39;22.77;;;10.90;;
64353;SDS011;50681;53.334;-6.536;2023-02-15T16:51:08;13.70;;;4.53;;
64353;SDS011;50681;53.334;-6.536;2023-02-15T16:53:34;19.17;;;6.43;;
64353;SDS011;50681;53.334;-6.536;2023-02-15T16:56:01;18.33;;;8.90;;
64353;SDS011;50681;53.334;-6.536;2023-02-15T16:58:36;16.67;;;7.15;;
64353;SDS011;50681;53.334;-6.536;2023-02-15T17:01:02;33.25;;;12.27;;
64353;SDS011;50681;53.334;-6.536;2023-02-15T17:03:30;39.85;;;13.80;;
64353;SDS011;50681;53.334;-6.536;2023-02-15T17:05:57;57.45;;;20.88;;
64353;SDS011;50681;53.334;-6.536;2023-02-15T17:08:26;14.60;;;4.22;;
64353;SDS011;50681;53.334;-6.536;2023-02-15T17:11:04;15.07;;;3.28;;
64353;SDS011;50681;53.334;-6.536;2023-02-15T17:13:36;9.93;;;2.70;;
64353;SDS011;50681;53.334;-6.536;2023-02-15T17:21:01;25.70;;;11.05;;
64353;SDS011;50681;53.334;-6.536;2023-02-15T17:23:39;23.10;;;8.75;;
64353;SDS011;50681;53.334;-6.536;2023-02-15T17:26:14;14.65;;;3.08;;
64353;SDS011;50681;53.334;-6.536;2023-02-15T17:28:48;13.30;;;3.85;;
64353;SDS011;50681;53.334;-6.536;2023-02-15T17:31:16;43.58;;;18.92;;
64353;SDS011;50681;53.334;-6.536;2023-02-15T17:33:43;39.25;;;20.58;;
64353;SDS011;50681;53.334;-6.536;2023-02-15T17:36:19;110.13;;;68.60;;
64353;SDS011;50681;53.334;-6.536;2023-02-15T17:41:21;16.58;;;4.75;;
64353;SDS011;50681;53.334;-6.536;2023-02-15T17:43:47;9.57;;;3.03;;
64353;SDS011;50681;53.334;-6.536;2023-02-15T17:46:12;20.43;;;3.67;;
64353;SDS011;50681;53.334;-6.536;2023-02-15T17:48:39;14.97;;;2.50;;
64353;SDS011;50681;53.334;-6.536;2023-02-15T17:51:06;13.75;;;3.25;;
64353;SDS011;50681;53.334;-6.536;2023-02-15T17:53:36;15.48;;;3.50;;
64353;SDS011;50681;53.334;-6.536;2023-02-15T17:56:02;16.60;;;2.50;;
64353;SDS011;50681;53.334;-6.536;2023-02-15T17:58:37;13.98;;;3.30;;
64353;SDS011;50681;53.334;-6.536;2023-02-15T18:01:05;14.07;;;2.28;;
64353;SDS011;50681;53.334;-6.536;2023-02-15T18:03:54;12.48;;;2.35;;
64353;SDS011;50681;53.334;-6.536;2023-02-15T18:06:40;9.90;;;2.90;;
64353;SDS011;50681;53.334;-6.536;2023-02-15T18:09:25;19.67;;;6.00;;
64353;SDS011;50681;53.334;-6.536;2023-02-15T18:14:46;10.75;;;3.45;;
64353;SDS011;50681;53.334;-6.536;2023-02-15T18:17:12;14.37;;;2.60;;
64353;SDS011;50681;53.334;-6.536;2023-02-15T18:19:39;9.77;;;2.33;;
64353;SDS011;50681;53.334;-6.536;2023-02-15T18:22:14;19.63;;;4.95;;
64353;SDS011;50681;53.334;-6.536;2023-02-15T18:24:42;20.83;;;4.93;;
64353;SDS011;50681;53.334;-6.536;2023-02-15T18:27:09;45.70;;;25.15;;
64353;SDS011;50681;53.334;-6.536;2023-02-15T18:29:36;32.83;;;15.80;;
64353;SDS011;50681;53.334;-6.536;2023-02-15T18:32:01;41.40;;;17.67;;
64353;SDS011;50681;53.334;-6.536;2023-02-15T18:34:31;20.75;;;6.97;;
64353;SDS011;50681;53.334;-6.536;2023-02-15T18:37:00;23.92;;;9.60;;
64353;SDS011;50681;53.334;-6.536;2023-02-15T18:39:33;21.42;;;4.68;;
64353;SDS011;50681;53.334;-6.536;2023-02-15T18:42:00;21.85;;;8.10;;
64353;SDS011;50681;53.334;-6.536;2023-02-15T18:44:25;34.83;;;11.27;;
64353;SDS011;50681;53.334;-6.536;2023-02-15T18:46:51;22.10;;;8.57;;
64353;SDS011;50681;53.334;-6.536;2023-02-15T18:49:16;16.70;;;6.03;;
64353;SDS011;50681;53.334;-6.536;2023-02-15T18:51:42;23.80;;;5.67;;
64353;SDS011;50681;53.334;-6.536;2023-02-15T18:54:15;34.92;;;12.50;;
64353;SDS011;50681;53.334;-6.536;2023-02-15T18:56:52;23.95;;;6.82;;
64353;SDS011;50681;53.334;-6.536;2023-02-15T18:59:20;34.47;;;9.75;;
64353;SDS011;50681;53.334;-6.536;2023-02-15T19:01:46;60.03;;;18.45;;